Tourist.f.b.terzo — IQAQ — position and weather

sailwx.info

Track history (hours):
 
Tides and Currents Weather Stations Pressure Air Temp Water Temp Dewpoint Dewpoint Depression Visibility Wind Speed Wind Dir Waves Ship Positions

Tourist.f.b.terzo

Last reported at 2014-Nov-26 02:33 UTC. Time now 2014-Nov-26 03:04 UTC.
Position N 40°45' E 013°55'.

Length 53 m; draft 1.8 m.

Type: Ship. MMSI: 247048900.

Date/timePositionNaut miles runAvg speedWind from/ knotsBaromVisibWave heightAir tempDewpointWater temp
2014-Nov-26 02:33N 40°45' E 013°55'9 8.5
2014-Nov-26 01:33N 40°48' E 014°06'3 2.7
2014-Nov-26 00:34N 40°46' E 014°03'7 6.9
2014-Nov-25 23:33N 40°45' E 013°55'0 0.0
2014-Nov-25 22:33N 40°45' E 013°54'0 0.0
2014-Nov-25 21:34N 40°45' E 013°54'0 0.0
2014-Nov-25 20:34N 40°45' E 013°54'0 0.0
2014-Nov-25 19:34N 40°45' E 013°54'0 0.0
2014-Nov-25 18:33N 40°45' E 013°54'0 0.0
2014-Nov-25 17:33N 40°45' E 013°54'0 0.0
2014-Nov-25 16:33N 40°45' E 013°54'0 0.0
2014-Nov-25 15:33N 40°45' E 013°54'0 0.0
2014-Nov-25 14:33N 40°45' E 013°54'0 0.0
2014-Nov-25 13:33N 40°45' E 013°54'0 0.0
2014-Nov-25 12:34N 40°45' E 013°54'0 0.0
2014-Nov-25 11:33N 40°45' E 013°54'2 1.8
2014-Nov-25 10:33N 40°46' E 013°57'8 7.9
2014-Nov-25 09:33N 40°49' E 014°06'3 2.6
2014-Nov-25 08:33N 40°46' E 014°05'6 6.4
2014-Nov-25 07:33N 40°46' E 013°57'4 4.0
2014-Nov-25 06:33N 40°47' E 014°02'5 4.8
2014-Nov-25 05:33N 40°49' E 014°07'6 5.8
2014-Nov-25 04:33N 40°47' E 014°00'5 4.7
2014-Nov-25 03:33N 40°45' E 013°54'7 6.5
2014-Nov-25 02:33N 40°46' E 014°03'4 4.4
2014-Nov-25 01:33N 40°49' E 014°07'6 6.4
2014-Nov-25 00:33N 40°47' E 013°60'4 4.1
2014-Nov-24 23:33N 40°45' E 013°54'0 0.0
2014-Nov-24 22:33N 40°45' E 013°54'0 0.0
2014-Nov-24 16:33N 40°45' E 013°54'0 0.0
2014-Nov-24 15:33N 40°45' E 013°54'0 0.0
2014-Nov-24 14:33N 40°45' E 013°54'0 0.0
2014-Nov-24 13:33N 40°45' E 013°54'0 0.0
2014-Nov-24 12:33N 40°45' E 013°54'0 0.0
2014-Nov-24 11:33N 40°45' E 013°54'0 0.0
2014-Nov-24 10:33N 40°45' E 013°54'1 1.3
2014-Nov-24 09:33N 40°46' E 013°56'8 8.2
2014-Nov-24 08:33N 40°49' E 014°06'3 2.8
2014-Nov-24 07:33N 40°46' E 014°04'7 7.0
2014-Nov-24 06:33N 40°45' E 013°55'5 5.4
2014-Nov-24 05:33N 40°46' E 014°02'5 5.0
2014-Nov-24 04:33N 40°49' E 014°07'7 7.3
2014-Nov-24 03:33N 40°46' E 013°58'1 0.8
2014-Nov-24 02:33N 40°46' E 013°57'7 6.7
2014-Nov-24 01:33N 40°47' E 014°06'2 2.1
2014-Nov-24 00:33N 40°46' E 014°04'7 7.0
2014-Nov-23 23:33N 40°45' E 013°55'0 0.0
2014-Nov-22 11:34N 40°45' E 013°54'0 0.0
2014-Nov-22 10:34N 40°45' E 013°54'0 0.1
2014-Nov-22 09:33N 40°45' E 013°55'9 8.7
2014-Nov-22 08:33N 40°47' E 014°06'3 2.6
2014-Nov-22 07:33N 40°49' E 014°07'7 6.9
2014-Nov-22 06:33N 40°46' E 013°59'0 0.2
2014-Nov-22 05:33N 40°46' E 013°59'7 6.8
2014-Nov-22 04:33N 40°49' E 014°07'6 6.0
2014-Nov-22 03:33N 40°47' E 014°00'5 4.6
2014-Nov-22 02:33N 40°45' E 013°54'7 7.1
2014-Nov-22 01:33N 40°46' E 014°04'2 2.1
2014-Nov-22 00:33N 40°47' E 014°06'8 8.4
2014-Nov-21 23:33N 40°45' E 013°55'1 0.1
2014-Nov-21 19:15N 40°45' E 013°54'0 0.0
2014-Nov-21 18:33N 40°45' E 013°54'0 0.0
2014-Nov-21 17:33N 40°45' E 013°54'0 0.0
2014-Nov-21 16:33N 40°45' E 013°54'0 0.0
2014-Nov-21 15:33N 40°45' E 013°54'0 0.0
2014-Nov-21 14:33N 40°45' E 013°54'0 0.0
2014-Nov-21 13:33N 40°45' E 013°54'0 0.0
2014-Nov-21 12:33N 40°45' E 013°54'0 0.0
2014-Nov-21 11:33N 40°45' E 013°54'2 2.4
2014-Nov-21 10:33N 40°46' E 013°57'7 6.7
2014-Nov-21 09:33N 40°47' E 014°06'2 2.4
2014-Nov-21 08:33N 40°49' E 014°07'5 5.4
2014-Nov-21 07:34N 40°46' E 014°02'5 5.5
2014-Nov-21 06:33N 40°45' E 013°54'7 7.1
2014-Nov-21 05:33N 40°47' E 014°04'3 2.9
2014-Nov-21 04:33N 40°49' E 014°06'8 7.7
2014-Nov-21 03:33N 40°46' E 013°57'1 1.4
2014-Nov-21 02:33N 40°46' E 013°59'6 6.0
2014-Nov-21 01:33N 40°48' E 014°06'2 1.9
2014-Nov-21 00:33N 40°46' E 014°05'8 8.1
2014-Nov-20 23:33N 40°45' E 013°54'0 0.0
2014-Nov-20 16:19N 40°45' E 013°54'0 0.0
2014-Nov-20 15:33N 40°45' E 013°54'0 0.0
2014-Nov-20 14:33N 40°45' E 013°54'0 0.0
2014-Nov-20 13:33N 40°45' E 013°54'0 0.0
2014-Nov-20 12:33N 40°45' E 013°54'0 0.0
2014-Nov-20 11:33N 40°45' E 013°54'0 0.0
2014-Nov-20 10:34N 40°45' E 013°54'9 8.9
2014-Nov-20 09:33N 40°47' E 014°06'3 2.6
2014-Nov-20 08:33N 40°49' E 014°07'4 4.2
2014-Nov-20 07:34N 40°46' E 014°03'6 5.7
2014-Nov-20 06:34N 40°46' E 013°56'5 4.8
2014-Nov-20 05:34N 40°47' E 014°02'4 4.3
2014-Nov-20 04:33N 40°49' E 014°07'7 7.3
2014-Nov-20 03:33N 40°46' E 013°58'1 0.6
2014-Nov-20 02:34N 40°46' E 013°59'6 6.1
2014-Nov-20 01:34N 40°48' E 014°06'3 2.5
2014-Nov-20 00:33N 40°46' E 014°04'7 7.4
2014-Nov-19 23:34N 40°45' E 013°54'0 0.0
2014-Nov-19 19:18N 40°45' E 013°54'0 0.0
2014-Nov-19 18:33N 40°45' E 013°54'0 0.0
2014-Nov-19 16:33N 40°45' E 013°54'0 0.0
2014-Nov-19 15:34N 40°45' E 013°54'7 6.8
2014-Nov-19 14:34N 40°46' E 014°03'4 3.8
2014-Nov-19 13:33N 40°49' E 014°06'6 5.7
2014-Nov-19 12:34N 40°46' E 013°60'4 4.4
2014-Nov-19 11:34N 40°45' E 013°54'7 7.0
2014-Nov-19 10:33N 40°46' E 014°03'4 4.0
2014-Nov-19 09:33N 40°49' E 014°07'5 5.3
2014-Nov-19 08:33N 40°47' E 014°01'5 5.3
2014-Nov-19 07:33N 40°45' E 013°54'6 5.5
2014-Nov-19 06:33N 40°46' E 014°02'5 5.3
2014-Nov-19 05:33N 40°49' E 014°07'6 6.4
2014-Nov-19 04:33N 40°47' E 013°59'4 4.0
2014-Nov-19 03:33N 40°45' E 013°54'6 5.5
2014-Nov-19 02:33N 40°46' E 014°02'5 5.3
2014-Nov-19 01:33N 40°49' E 014°07'5 4.7
2014-Nov-19 00:33N 40°46' E 014°03'6 6.2
2014-Nov-18 23:33N 40°45' E 013°55'0 0.0
2014-Nov-18 17:26N 40°45' E 013°54'0 0.0
2014-Nov-18 16:34N 40°45' E 013°54'0 0.0
2014-Nov-18 15:33N 40°45' E 013°54'0 0.0
2014-Nov-18 14:34N 40°45' E 013°54'7 6.8
2014-Nov-18 13:33N 40°46' E 014°03'2 2.3
2014-Nov-18 12:33N 40°47' E 014°06'8 8.4
2014-Nov-18 11:34N 40°45' E 013°55'5 4.8
2014-Nov-18 10:33N 40°46' E 014°02'5 5.4
2014-Nov-18 09:33N 40°49' E 014°07'0 0.0
2014-Nov-18 08:32N 40°49' E 014°07'6 6.4
2014-Nov-18 07:33N 40°47' E 013°60'4 4.2
2014-Nov-18 06:33N 40°45' E 013°54'0 0.0
2014-Nov-17 23:33N 40°45' E 013°54'0 0.0
2014-Nov-17 15:33N 40°45' E 013°54'0 0.0
2014-Nov-17 14:33N 40°45' E 013°54'0 0.0
2014-Nov-17 13:33N 40°45' E 013°54'0 0.0
2014-Nov-17 12:34N 40°45' E 013°54'0 0.0
2014-Nov-17 11:33N 40°45' E 013°54'8 7.8
2014-Nov-17 10:33N 40°46' E 014°05'4 3.6
2014-Nov-17 09:33N 40°49' E 014°07'2 2.4
2014-Nov-17 08:33N 40°47' E 014°06'5 5.0
2014-Nov-17 07:33N 40°46' E 013°60'1 1.5
2014-Nov-17 06:33N 40°46' E 013°58'7 7.2
2014-Nov-17 05:33N 40°49' E 014°06'4 4.2
2014-Nov-17 04:33N 40°47' E 014°02'6 5.7
2014-Nov-17 03:33N 40°45' E 013°55'7 7.0
2014-Nov-17 02:33N 40°46' E 014°04'4 4.0
2014-Nov-17 01:33N 40°49' E 014°07'5 5.4
2014-Nov-17 00:33N 40°46' E 014°02'5 5.5
2014-Nov-16 23:33N 40°45' E 013°54'  
Track history (hours):
 
Tides and Currents Weather Stations Pressure Air Temp Water Temp Dewpoint Dewpoint Depression Visibility Wind Speed Wind Dir Waves Ship Positions

Tourist.f.b.terzo

Last reported at 2014-Nov-26 02:33 UTC. Time now 2014-Nov-26 03:04 UTC.
Position N 40°45' E 013°55'.

Length 53 m; draft 1.8 m.

Type: Ship. MMSI: 247048900.

Date/timePositionNaut miles runAvg speedWind from/ knotsBaromVisibWave heightAir tempDewpointWater temp
2014-Nov-26 02:33N 40°45' E 013°55'9 8.5
2014-Nov-26 01:33N 40°48' E 014°06'3 2.7
2014-Nov-26 00:34N 40°46' E 014°03'7 6.9
2014-Nov-25 23:33N 40°45' E 013°55'0 0.0
2014-Nov-25 22:33N 40°45' E 013°54'0 0.0
2014-Nov-25 21:34N 40°45' E 013°54'0 0.0
2014-Nov-25 20:34N 40°45' E 013°54'0 0.0
2014-Nov-25 19:34N 40°45' E 013°54'0 0.0
2014-Nov-25 18:33N 40°45' E 013°54'0 0.0
2014-Nov-25 17:33N 40°45' E 013°54'0 0.0
2014-Nov-25 16:33N 40°45' E 013°54'0 0.0
2014-Nov-25 15:33N 40°45' E 013°54'0 0.0
2014-Nov-25 14:33N 40°45' E 013°54'0 0.0
2014-Nov-25 13:33N 40°45' E 013°54'0 0.0
2014-Nov-25 12:34N 40°45' E 013°54'0 0.0
2014-Nov-25 11:33N 40°45' E 013°54'2 1.8
2014-Nov-25 10:33N 40°46' E 013°57'8 7.9
2014-Nov-25 09:33N 40°49' E 014°06'3 2.6
2014-Nov-25 08:33N 40°46' E 014°05'6 6.4
2014-Nov-25 07:33N 40°46' E 013°57'4 4.0
2014-Nov-25 06:33N 40°47' E 014°02'5 4.8
2014-Nov-25 05:33N 40°49' E 014°07'6 5.8
2014-Nov-25 04:33N 40°47' E 014°00'5 4.7
2014-Nov-25 03:33N 40°45' E 013°54'7 6.5
2014-Nov-25 02:33N 40°46' E 014°03'4 4.4
2014-Nov-25 01:33N 40°49' E 014°07'6 6.4
2014-Nov-25 00:33N 40°47' E 013°60'4 4.1
2014-Nov-24 23:33N 40°45' E 013°54'0 0.0
2014-Nov-24 22:33N 40°45' E 013°54'0 0.0
2014-Nov-24 16:33N 40°45' E 013°54'0 0.0
2014-Nov-24 15:33N 40°45' E 013°54'0 0.0
2014-Nov-24 14:33N 40°45' E 013°54'0 0.0
2014-Nov-24 13:33N 40°45' E 013°54'0 0.0
2014-Nov-24 12:33N 40°45' E 013°54'0 0.0
2014-Nov-24 11:33N 40°45' E 013°54'0 0.0
2014-Nov-24 10:33N 40°45' E 013°54'1 1.3
2014-Nov-24 09:33N 40°46' E 013°56'8 8.2
2014-Nov-24 08:33N 40°49' E 014°06'3 2.8
2014-Nov-24 07:33N 40°46' E 014°04'7 7.0
2014-Nov-24 06:33N 40°45' E 013°55'5 5.4
2014-Nov-24 05:33N 40°46' E 014°02'5 5.0
2014-Nov-24 04:33N 40°49' E 014°07'7 7.3
2014-Nov-24 03:33N 40°46' E 013°58'1 0.8
2014-Nov-24 02:33N 40°46' E 013°57'7 6.7
2014-Nov-24 01:33N 40°47' E 014°06'2 2.1
2014-Nov-24 00:33N 40°46' E 014°04'7 7.0
2014-Nov-23 23:33N 40°45' E 013°55'0 0.0
2014-Nov-22 11:34N 40°45' E 013°54'0 0.0
2014-Nov-22 10:34N 40°45' E 013°54'0 0.1
2014-Nov-22 09:33N 40°45' E 013°55'9 8.7
2014-Nov-22 08:33N 40°47' E 014°06'3 2.6
2014-Nov-22 07:33N 40°49' E 014°07'7 6.9
2014-Nov-22 06:33N 40°46' E 013°59'0 0.2
2014-Nov-22 05:33N 40°46' E 013°59'7 6.8
2014-Nov-22 04:33N 40°49' E 014°07'6 6.0
2014-Nov-22 03:33N 40°47' E 014°00'5 4.6
2014-Nov-22 02:33N 40°45' E 013°54'7 7.1
2014-Nov-22 01:33N 40°46' E 014°04'2 2.1
2014-Nov-22 00:33N 40°47' E 014°06'8 8.4
2014-Nov-21 23:33N 40°45' E 013°55'1 0.1
2014-Nov-21 19:15N 40°45' E 013°54'0 0.0
2014-Nov-21 18:33N 40°45' E 013°54'0 0.0
2014-Nov-21 17:33N 40°45' E 013°54'0 0.0
2014-Nov-21 16:33N 40°45' E 013°54'0 0.0
2014-Nov-21 15:33N 40°45' E 013°54'0 0.0
2014-Nov-21 14:33N 40°45' E 013°54'0 0.0
2014-Nov-21 13:33N 40°45' E 013°54'0 0.0
2014-Nov-21 12:33N 40°45' E 013°54'0 0.0
2014-Nov-21 11:33N 40°45' E 013°54'2 2.4
2014-Nov-21 10:33N 40°46' E 013°57'7 6.7
2014-Nov-21 09:33N 40°47' E 014°06'2 2.4
2014-Nov-21 08:33N 40°49' E 014°07'5 5.4
2014-Nov-21 07:34N 40°46' E 014°02'5 5.5
2014-Nov-21 06:33N 40°45' E 013°54'7 7.1
2014-Nov-21 05:33N 40°47' E 014°04'3 2.9
2014-Nov-21 04:33N 40°49' E 014°06'8 7.7
2014-Nov-21 03:33N 40°46' E 013°57'1 1.4
2014-Nov-21 02:33N 40°46' E 013°59'6 6.0
2014-Nov-21 01:33N 40°48' E 014°06'2 1.9
2014-Nov-21 00:33N 40°46' E 014°05'8 8.1
2014-Nov-20 23:33N 40°45' E 013°54'0 0.0
2014-Nov-20 16:19N 40°45' E 013°54'0 0.0
2014-Nov-20 15:33N 40°45' E 013°54'0 0.0
2014-Nov-20 14:33N 40°45' E 013°54'0 0.0
2014-Nov-20 13:33N 40°45' E 013°54'0 0.0
2014-Nov-20 12:33N 40°45' E 013°54'0 0.0
2014-Nov-20 11:33N 40°45' E 013°54'0 0.0
2014-Nov-20 10:34N 40°45' E 013°54'9 8.9
2014-Nov-20 09:33N 40°47' E 014°06'3 2.6
2014-Nov-20 08:33N 40°49' E 014°07'4 4.2
2014-Nov-20 07:34N 40°46' E 014°03'6 5.7
2014-Nov-20 06:34N 40°46' E 013°56'5 4.8
2014-Nov-20 05:34N 40°47' E 014°02'4 4.3
2014-Nov-20 04:33N 40°49' E 014°07'7 7.3
2014-Nov-20 03:33N 40°46' E 013°58'1 0.6
2014-Nov-20 02:34N 40°46' E 013°59'6 6.1
2014-Nov-20 01:34N 40°48' E 014°06'3 2.5
2014-Nov-20 00:33N 40°46' E 014°04'7 7.4
2014-Nov-19 23:34N 40°45' E 013°54'0 0.0
2014-Nov-19 19:18N 40°45' E 013°54'0 0.0
2014-Nov-19 18:33N 40°45' E 013°54'0 0.0
2014-Nov-19 16:33N 40°45' E 013°54'0 0.0
2014-Nov-19 15:34N 40°45' E 013°54'7 6.8
2014-Nov-19 14:34N 40°46' E 014°03'4 3.8
2014-Nov-19 13:33N 40°49' E 014°06'6 5.7
2014-Nov-19 12:34N 40°46' E 013°60'4 4.4
2014-Nov-19 11:34N 40°45' E 013°54'7 7.0
2014-Nov-19 10:33N 40°46' E 014°03'4 4.0
2014-Nov-19 09:33N 40°49' E 014°07'5 5.3
2014-Nov-19 08:33N 40°47' E 014°01'5 5.3
2014-Nov-19 07:33N 40°45' E 013°54'6 5.5
2014-Nov-19 06:33N 40°46' E 014°02'5 5.3
2014-Nov-19 05:33N 40°49' E 014°07'6 6.4
2014-Nov-19 04:33N 40°47' E 013°59'4 4.0
2014-Nov-19 03:33N 40°45' E 013°54'6 5.5
2014-Nov-19 02:33N 40°46' E 014°02'5 5.3
2014-Nov-19 01:33N 40°49' E 014°07'5 4.7
2014-Nov-19 00:33N 40°46' E 014°03'6 6.2
2014-Nov-18 23:33N 40°45' E 013°55'0 0.0
2014-Nov-18 17:26N 40°45' E 013°54'0 0.0
2014-Nov-18 16:34N 40°45' E 013°54'0 0.0
2014-Nov-18 15:33N 40°45' E 013°54'0 0.0
2014-Nov-18 14:34N 40°45' E 013°54'7 6.8
2014-Nov-18 13:33N 40°46' E 014°03'2 2.3
2014-Nov-18 12:33N 40°47' E 014°06'8 8.4
2014-Nov-18 11:34N 40°45' E 013°55'5 4.8
2014-Nov-18 10:33N 40°46' E 014°02'5 5.4
2014-Nov-18 09:33N 40°49' E 014°07'0 0.0
2014-Nov-18 08:32N 40°49' E 014°07'6 6.4
2014-Nov-18 07:33N 40°47' E 013°60'4 4.2
2014-Nov-18 06:33N 40°45' E 013°54'0 0.0
2014-Nov-17 23:33N 40°45' E 013°54'0 0.0
2014-Nov-17 15:33N 40°45' E 013°54'0 0.0
2014-Nov-17 14:33N 40°45' E 013°54'0 0.0
2014-Nov-17 13:33N 40°45' E 013°54'0 0.0
2014-Nov-17 12:34N 40°45' E 013°54'0 0.0
2014-Nov-17 11:33N 40°45' E 013°54'8 7.8
2014-Nov-17 10:33N 40°46' E 014°05'4 3.6
2014-Nov-17 09:33N 40°49' E 014°07'2 2.4
2014-Nov-17 08:33N 40°47' E 014°06'5 5.0
2014-Nov-17 07:33N 40°46' E 013°60'1 1.5
2014-Nov-17 06:33N 40°46' E 013°58'7 7.2
2014-Nov-17 05:33N 40°49' E 014°06'4 4.2
2014-Nov-17 04:33N 40°47' E 014°02'6 5.7
2014-Nov-17 03:33N 40°45' E 013°55'7 7.0
2014-Nov-17 02:33N 40°46' E 014°04'4 4.0
2014-Nov-17 01:33N 40°49' E 014°07'5 5.4
2014-Nov-17 00:33N 40°46' E 014°02'5 5.5
2014-Nov-16 23:33N 40°45' E 013°54'  

Dump ship's entire track history